sensor_id;sensor_type;location;lat;lon;timestamp;pressure;altitude;pressure_sealevel;temperature;humidity
76137;BME280;68622;53.128;17.966;2023-04-10T00:00:19;102307.61;;;5.01;66.41
76137;BME280;68622;53.128;17.966;2023-04-10T00:03:06;102305.82;;;4.94;66.82
76137;BME280;68622;53.128;17.966;2023-04-10T00:05:33;102310.14;;;4.89;66.83
76137;BME280;68622;53.128;17.966;2023-04-10T00:07:59;102309.39;;;4.86;66.79
76137;BME280;68622;53.128;17.966;2023-04-10T00:10:26;102309.16;;;4.83;66.97
76137;BME280;68622;53.128;17.966;2023-04-10T00:12:56;102304.78;;;4.81;67.33
76137;BME280;68622;53.128;17.966;2023-04-10T00:15:23;102305.96;;;4.77;67.23
76137;BME280;68622;53.128;17.966;2023-04-10T00:17:49;102306.91;;;4.75;67.35
76137;BME280;68622;53.128;17.966;2023-04-10T00:20:21;102309.64;;;4.76;67.25
76137;BME280;68622;53.128;17.966;2023-04-10T00:22:51;102308.63;;;4.75;67.26
76137;BME280;68622;53.128;17.966;2023-04-10T00:25:18;102308.96;;;4.70;67.82
76137;BME280;68622;53.128;17.966;2023-04-10T00:27:44;102307.91;;;4.67;67.54
76137;BME280;68622;53.128;17.966;2023-04-10T00:30:11;102305.92;;;4.65;68.03
76137;BME280;68622;53.128;17.966;2023-04-10T00:32:38;102304.79;;;4.63;67.49
76137;BME280;68622;53.128;17.966;2023-04-10T00:35:06;102308.77;;;4.62;68.20
76137;BME280;68622;53.128;17.966;2023-04-10T00:37:33;102308.02;;;4.59;67.90
76137;BME280;68622;53.128;17.966;2023-04-10T00:39:59;102301.09;;;4.56;67.68
76137;BME280;68622;53.128;17.966;2023-04-10T00:42:26;102297.89;;;4.54;67.72
76137;BME280;68622;53.128;17.966;2023-04-10T00:44:53;102298.25;;;4.49;67.70
76137;BME280;68622;53.128;17.966;2023-04-10T00:47:20;102299.08;;;4.45;67.79
76137;BME280;68622;53.128;17.966;2023-04-10T00:49:47;102298.19;;;4.42;67.91
76137;BME280;68622;53.128;17.966;2023-04-10T00:52:14;102294.46;;;4.40;67.86
76137;BME280;68622;53.128;17.966;2023-04-10T00:54:40;102291.52;;;4.41;67.73
76137;BME280;68622;53.128;17.966;2023-04-10T00:57:07;102294.09;;;4.41;67.70
76137;BME280;68622;53.128;17.966;2023-04-10T00:59:34;102292.38;;;4.41;68.52
76137;BME280;68622;53.128;17.966;2023-04-10T01:02:01;102291.43;;;4.39;68.35
76137;BME280;68622;53.128;17.966;2023-04-10T01:04:29;102290.38;;;4.35;68.26
76137;BME280;68622;53.128;17.966;2023-04-10T01:10:03;102292.98;;;4.20;69.08
76137;BME280;68622;53.128;17.966;2023-04-10T01:17:43;102292.41;;;4.02;68.92
76137;BME280;68622;53.128;17.966;2023-04-10T01:20:13;102293.66;;;3.97;68.79
76137;BME280;68622;53.128;17.966;2023-04-10T01:25:44;102294.70;;;3.81;70.38
76137;BME280;68622;53.128;17.966;2023-04-10T01:30:48;102304.71;;;3.75;69.67
76137;BME280;68622;53.128;17.966;2023-04-10T01:33:21;102303.17;;;3.75;69.26
76137;BME280;68622;53.128;17.966;2023-04-10T01:35:52;102305.42;;;3.75;69.53
76137;BME280;68622;53.128;17.966;2023-04-10T01:38:23;102306.38;;;3.71;70.07
76137;BME280;68622;53.128;17.966;2023-04-10T01:40:53;102309.61;;;3.67;69.88
76137;BME280;68622;53.128;17.966;2023-04-10T01:43:28;102308.75;;;3.62;69.87
76137;BME280;68622;53.128;17.966;2023-04-10T01:45:57;102308.73;;;3.58;70.01
76137;BME280;68622;53.128;17.966;2023-04-10T01:48:25;102312.25;;;3.55;70.01
76137;BME280;68622;53.128;17.966;2023-04-10T01:50:53;102313.14;;;3.54;70.12
76137;BME280;68622;53.128;17.966;2023-04-10T01:53:20;102312.83;;;3.53;70.31
76137;BME280;68622;53.128;17.966;2023-04-10T01:55:49;102313.60;;;3.51;70.08
76137;BME280;68622;53.128;17.966;2023-04-10T01:58:16;102314.45;;;3.46;70.64
76137;BME280;68622;53.128;17.966;2023-04-10T02:00:43;102312.59;;;3.40;70.48
76137;BME280;68622;53.128;17.966;2023-04-10T02:03:10;102312.95;;;3.34;71.24
76137;BME280;68622;53.128;17.966;2023-04-10T02:06:08;102316.63;;;3.31;71.07
76137;BME280;68622;53.128;17.966;2023-04-10T02:08:41;102315.40;;;3.27;71.18
76137;BME280;68622;53.128;17.966;2023-04-10T02:11:40;102317.97;;;3.22;71.25
76137;BME280;68622;53.128;17.966;2023-04-10T02:14:10;102317.88;;;3.14;71.61
76137;BME280;68622;53.128;17.966;2023-04-10T02:16:42;102319.91;;;3.09;71.50
76137;BME280;68622;53.128;17.966;2023-04-10T02:19:11;102321.39;;;3.06;72.20
76137;BME280;68622;53.128;17.966;2023-04-10T02:21:38;102322.09;;;3.05;71.69
76137;BME280;68622;53.128;17.966;2023-04-10T02:24:07;102317.82;;;3.05;71.94
76137;BME280;68622;53.128;17.966;2023-04-10T02:26:47;102319.58;;;3.03;71.69
76137;BME280;68622;53.128;17.966;2023-04-10T02:29:14;102320.00;;;3.01;71.45
76137;BME280;68622;53.128;17.966;2023-04-10T02:31:42;102318.13;;;3.00;71.57
76137;BME280;68622;53.128;17.966;2023-04-10T02:34:09;102318.55;;;2.98;71.70
76137;BME280;68622;53.128;17.966;2023-04-10T02:36:36;102316.09;;;2.94;71.88
76137;BME280;68622;53.128;17.966;2023-04-10T02:39:05;102319.30;;;2.91;72.55
76137;BME280;68622;53.128;17.966;2023-04-10T02:41:32;102318.30;;;2.89;71.55
76137;BME280;68622;53.128;17.966;2023-04-10T02:43:59;102314.19;;;2.89;71.63
76137;BME280;68622;53.128;17.966;2023-04-10T02:46:27;102315.10;;;2.87;71.61
76137;BME280;68622;53.128;17.966;2023-04-10T02:48:54;102314.80;;;2.86;71.58
76137;BME280;68622;53.128;17.966;2023-04-10T02:51:20;102316.51;;;2.86;71.59
76137;BME280;68622;53.128;17.966;2023-04-10T02:53:47;102315.05;;;2.83;71.76
76137;BME280;68622;53.128;17.966;2023-04-10T02:56:23;102321.16;;;2.80;71.84
76137;BME280;68622;53.128;17.966;2023-04-10T02:58:51;102321.69;;;2.79;71.35
76137;BME280;68622;53.128;17.966;2023-04-10T03:01:17;102321.69;;;2.79;71.31
76137;BME280;68622;53.128;17.966;2023-04-10T03:03:46;102317.10;;;2.78;71.69
76137;BME280;68622;53.128;17.966;2023-04-10T03:06:17;102311.42;;;2.79;71.79
76137;BME280;68622;53.128;17.966;2023-04-10T03:08:44;102310.79;;;2.77;71.84
76137;BME280;68622;53.128;17.966;2023-04-10T03:11:11;102308.32;;;2.74;71.77
76137;BME280;68622;53.128;17.966;2023-04-10T03:13:38;102309.05;;;2.73;72.28
76137;BME280;68622;53.128;17.966;2023-04-10T03:16:05;102308.73;;;2.72;72.26
76137;BME280;68622;53.128;17.966;2023-04-10T03:18:33;102307.52;;;2.72;72.01
76137;BME280;68622;53.128;17.966;2023-04-10T03:21:00;102304.42;;;2.72;72.49
76137;BME280;68622;53.128;17.966;2023-04-10T03:23:27;102303.23;;;2.72;72.81
76137;BME280;68622;53.128;17.966;2023-04-10T03:25:54;102304.30;;;2.71;73.04
76137;BME280;68622;53.128;17.966;2023-04-10T03:28:23;102300.25;;;2.68;73.29
76137;BME280;68622;53.128;17.966;2023-04-10T03:30:49;102302.84;;;2.68;73.16
76137;BME280;68622;53.128;17.966;2023-04-10T03:33:16;102306.40;;;2.69;73.34
76137;BME280;68622;53.128;17.966;2023-04-10T03:35:45;102307.73;;;2.70;73.60
76137;BME280;68622;53.128;17.966;2023-04-10T03:38:12;102308.92;;;2.71;73.50
76137;BME280;68622;53.128;17.966;2023-04-10T03:40:39;102308.58;;;2.71;73.35
76137;BME280;68622;53.128;17.966;2023-04-10T03:43:07;102309.27;;;2.71;73.46
76137;BME280;68622;53.128;17.966;2023-04-10T03:45:34;102308.10;;;2.70;73.20
76137;BME280;68622;53.128;17.966;2023-04-10T03:48:01;102309.23;;;2.67;73.50
76137;BME280;68622;53.128;17.966;2023-04-10T03:50:36;102308.39;;;2.66;73.76
76137;BME280;68622;53.128;17.966;2023-04-10T03:53:03;102312.27;;;2.68;73.01
76137;BME280;68622;53.128;17.966;2023-04-10T03:55:30;102309.80;;;2.70;73.14
76137;BME280;68622;53.128;17.966;2023-04-10T03:57:57;102304.45;;;2.72;72.74
76137;BME280;68622;53.128;17.966;2023-04-10T04:00:25;102309.34;;;2.75;72.78
76137;BME280;68622;53.128;17.966;2023-04-10T04:02:59;102308.85;;;2.73;73.05
76137;BME280;68622;53.128;17.966;2023-04-10T04:05:55;102313.67;;;2.73;73.02
76137;BME280;68622;53.128;17.966;2023-04-10T04:08:51;102313.76;;;2.70;73.12
76137;BME280;68622;53.128;17.966;2023-04-10T04:11:38;102314.56;;;2.65;73.15
76137;BME280;68622;53.128;17.966;2023-04-10T04:14:22;102313.13;;;2.68;73.04
76137;BME280;68622;53.128;17.966;2023-04-10T04:17:04;102312.54;;;2.70;72.76
76137;BME280;68622;53.128;17.966;2023-04-10T04:19:43;102311.21;;;2.69;73.52
76137;BME280;68622;53.128;17.966;2023-04-10T04:22:35;102316.02;;;2.68;73.20
76137;BME280;68622;53.128;17.966;2023-04-10T04:25:22;102318.08;;;2.68;73.53
76137;BME280;68622;53.128;17.966;2023-04-10T04:28:00;102317.07;;;2.68;73.52
76137;BME280;68622;53.128;17.966;2023-04-10T04:31:00;102318.21;;;2.70;73.24
76137;BME280;68622;53.128;17.966;2023-04-10T04:34:01;102320.83;;;2.74;73.11
76137;BME280;68622;53.128;17.966;2023-04-10T04:36:57;102322.67;;;2.81;72.77
76137;BME280;68622;53.128;17.966;2023-04-10T04:39:42;102331.58;;;2.87;73.03
76137;BME280;68622;53.128;17.966;2023-04-10T04:42:30;102332.65;;;2.91;73.16
76137;BME280;68622;53.128;17.966;2023-04-10T04:45:14;102333.18;;;2.95;72.74
76137;BME280;68622;53.128;17.966;2023-04-10T04:48:03;102338.36;;;3.00;73.00
76137;BME280;68622;53.128;17.966;2023-04-10T04:50:43;102340.89;;;3.08;73.09
76137;BME280;68622;53.128;17.966;2023-04-10T04:53:21;102343.10;;;3.13;72.68
76137;BME280;68622;53.128;17.966;2023-04-10T04:56:03;102343.04;;;3.21;72.61
76137;BME280;68622;53.128;17.966;2023-04-10T04:58:52;102348.00;;;3.27;72.54
76137;BME280;68622;53.128;17.966;2023-04-10T05:01:34;102349.89;;;3.32;72.24
76137;BME280;68622;53.128;17.966;2023-04-10T05:04:12;102354.34;;;3.37;72.12
76137;BME280;68622;53.128;17.966;2023-04-10T05:07:01;102359.10;;;3.44;72.11
76137;BME280;68622;53.128;17.966;2023-04-10T05:09:34;102362.55;;;3.49;72.59
76137;BME280;68622;53.128;17.966;2023-04-10T05:12:21;102366.22;;;3.57;72.27
76137;BME280;68622;53.128;17.966;2023-04-10T05:14:54;102365.89;;;3.67;71.94
76137;BME280;68622;53.128;17.966;2023-04-10T05:17:41;102362.91;;;3.79;71.79
76137;BME280;68622;53.128;17.966;2023-04-10T05:20:34;102366.83;;;3.91;71.49
76137;BME280;68622;53.128;17.966;2023-04-10T05:23:24;102375.15;;;3.98;70.80
76137;BME280;68622;53.128;17.966;2023-04-10T05:26:16;102375.78;;;4.05;69.93
76137;BME280;68622;53.128;17.966;2023-04-10T05:28:48;102376.12;;;4.10;70.12
76137;BME280;68622;53.128;17.966;2023-04-10T05:31:35;102376.45;;;4.20;69.36
76137;BME280;68622;53.128;17.966;2023-04-10T05:34:16;102378.69;;;4.29;69.78
76137;BME280;68622;53.128;17.966;2023-04-10T05:37:07;102381.04;;;4.41;69.99
76137;BME280;68622;53.128;17.966;2023-04-10T05:39:56;102380.49;;;4.51;69.33
76137;BME280;68622;53.128;17.966;2023-04-10T05:42:26;102379.59;;;4.57;68.80
76137;BME280;68622;53.128;17.966;2023-04-10T05:45:11;102377.24;;;4.65;68.62
76137;BME280;68622;53.128;17.966;2023-04-10T05:47:48;102378.29;;;4.74;68.81
76137;BME280;68622;53.128;17.966;2023-04-10T05:50:38;102379.40;;;4.81;68.63
76137;BME280;68622;53.128;17.966;2023-04-10T05:53:19;102378.95;;;4.88;68.16
76137;BME280;68622;53.128;17.966;2023-04-10T05:56:07;102380.24;;;4.90;67.97
76137;BME280;68622;53.128;17.966;2023-04-10T05:58:55;102379.45;;;5.02;67.70
76137;BME280;68622;53.128;17.966;2023-04-10T06:01:40;102380.64;;;5.11;67.50
76137;BME280;68622;53.128;17.966;2023-04-10T06:04:07;102379.49;;;5.18;67.15
76137;BME280;68622;53.128;17.966;2023-04-10T06:06:34;102380.52;;;5.23;66.77
76137;BME280;68622;53.128;17.966;2023-04-10T06:09:01;102382.52;;;5.25;66.63
76137;BME280;68622;53.128;17.966;2023-04-10T06:11:28;102379.58;;;5.29;66.47
76137;BME280;68622;53.128;17.966;2023-04-10T06:13:55;102381.33;;;5.33;66.49
76137;BME280;68622;53.128;17.966;2023-04-10T06:16:27;102385.27;;;5.38;66.09
76137;BME280;68622;53.128;17.966;2023-04-10T06:18:54;102385.27;;;5.42;65.95
76137;BME280;68622;53.128;17.966;2023-04-10T06:21:21;102383.01;;;5.47;65.90
76137;BME280;68622;53.128;17.966;2023-04-10T06:23:48;102379.70;;;5.56;65.71
76137;BME280;68622;53.128;17.966;2023-04-10T06:26:14;102379.21;;;5.68;65.83
76137;BME280;68622;53.128;17.966;2023-04-10T06:28:41;102379.41;;;5.80;65.71
76137;BME280;68622;53.128;17.966;2023-04-10T06:31:08;102382.86;;;5.88;65.60
76137;BME280;68622;53.128;17.966;2023-04-10T06:33:36;102380.52;;;5.95;65.33
76137;BME280;68622;53.128;17.966;2023-04-10T06:36:03;102384.70;;;6.07;65.44
76137;BME280;68622;53.128;17.966;2023-04-10T06:38:32;102384.68;;;6.19;65.29
76137;BME280;68622;53.128;17.966;2023-04-10T06:41:06;102386.02;;;6.32;65.04
76137;BME280;68622;53.128;17.966;2023-04-10T06:43:37;102383.25;;;6.43;65.00
76137;BME280;68622;53.128;17.966;2023-04-10T06:46:04;102382.24;;;6.55;64.66
76137;BME280;68622;53.128;17.966;2023-04-10T06:48:32;102382.52;;;6.63;64.57
76137;BME280;68622;53.128;17.966;2023-04-10T06:50:58;102385.05;;;6.72;64.36
76137;BME280;68622;53.128;17.966;2023-04-10T06:53:28;102385.48;;;6.82;64.15
76137;BME280;68622;53.128;17.966;2023-04-10T06:55:55;102379.82;;;6.89;63.74
76137;BME280;68622;53.128;17.966;2023-04-10T06:58:22;102378.12;;;6.99;63.98
76137;BME280;68622;53.128;17.966;2023-04-10T07:00:49;102378.66;;;7.10;63.33
76137;BME280;68622;53.128;17.966;2023-04-10T07:03:16;102372.84;;;7.16;62.78
76137;BME280;68622;53.128;17.966;2023-04-10T07:05:43;102374.95;;;7.22;63.12
76137;BME280;68622;53.128;17.966;2023-04-10T07:08:09;102377.80;;;7.32;63.35
76137;BME280;68622;53.128;17.966;2023-04-10T07:10:36;102378.52;;;7.42;63.56
76137;BME280;68622;53.128;17.966;2023-04-10T07:13:03;102384.79;;;7.44;62.54
76137;BME280;68622;53.128;17.966;2023-04-10T07:15:29;102378.77;;;7.54;63.20
76137;BME280;68622;53.128;17.966;2023-04-10T07:17:56;102379.41;;;7.66;63.33
76137;BME280;68622;53.128;17.966;2023-04-10T07:20:23;102377.42;;;7.78;62.91
76137;BME280;68622;53.128;17.966;2023-04-10T07:22:49;102373.33;;;7.87;62.45
76137;BME280;68622;53.128;17.966;2023-04-10T07:25:16;102375.02;;;7.95;61.99
76137;BME280;68622;53.128;17.966;2023-04-10T07:27:43;102374.98;;;8.06;61.79
76137;BME280;68622;53.128;17.966;2023-04-10T07:30:10;102376.48;;;8.13;62.02
76137;BME280;68622;53.128;17.966;2023-04-10T07:32:37;102368.78;;;8.22;61.92
76137;BME280;68622;53.128;17.966;2023-04-10T07:35:05;102369.33;;;8.38;61.69
76137;BME280;68622;53.128;17.966;2023-04-10T07:37:32;102369.71;;;8.51;60.84
76137;BME280;68622;53.128;17.966;2023-04-10T07:39:59;102367.71;;;8.69;61.63
76137;BME280;68622;53.128;17.966;2023-04-10T07:42:27;102366.05;;;8.87;62.16
76137;BME280;68622;53.128;17.966;2023-04-10T07:44:54;102362.95;;;8.95;59.59
76137;BME280;68622;53.128;17.966;2023-04-10T07:47:20;102366.59;;;9.05;59.61
76137;BME280;68622;53.128;17.966;2023-04-10T07:49:47;102367.19;;;9.12;59.39
76137;BME280;68622;53.128;17.966;2023-04-10T07:52:14;102363.91;;;9.15;59.07
76137;BME280;68622;53.128;17.966;2023-04-10T07:54:41;102365.23;;;9.20;58.79
76137;BME280;68622;53.128;17.966;2023-04-10T07:57:08;102364.69;;;9.20;58.52
76137;BME280;68622;53.128;17.966;2023-04-10T07:59:34;102364.27;;;9.22;58.29
76137;BME280;68622;53.128;17.966;2023-04-10T08:02:01;102359.92;;;9.31;58.81
76137;BME280;68622;53.128;17.966;2023-04-10T08:04:28;102361.32;;;9.46;59.32
76137;BME280;68622;53.128;17.966;2023-04-10T08:06:54;102364.25;;;9.61;59.21
76137;BME280;68622;53.128;17.966;2023-04-10T08:09:21;102357.50;;;9.70;58.10
76137;BME280;68622;53.128;17.966;2023-04-10T08:11:47;102354.98;;;9.86;58.27
76137;BME280;68622;53.128;17.966;2023-04-10T08:14:14;102352.41;;;10.00;58.14
76137;BME280;68622;53.128;17.966;2023-04-10T08:16:41;102350.87;;;10.03;56.99
76137;BME280;68622;53.128;17.966;2023-04-10T08:19:07;102342.78;;;10.13;58.17
76137;BME280;68622;53.128;17.966;2023-04-10T08:21:34;102341.79;;;10.27;57.59
76137;BME280;68622;53.128;17.966;2023-04-10T08:24:02;102337.88;;;10.46;56.57
76137;BME280;68622;53.128;17.966;2023-04-10T08:26:29;102333.19;;;10.71;57.64
76137;BME280;68622;53.128;17.966;2023-04-10T08:28:57;102333.71;;;10.90;56.83
76137;BME280;68622;53.128;17.966;2023-04-10T08:31:26;102329.84;;;11.04;56.39
76137;BME280;68622;53.128;17.966;2023-04-10T08:33:53;102325.74;;;11.19;55.57
76137;BME280;68622;53.128;17.966;2023-04-10T08:36:19;102324.59;;;11.28;53.79
76137;BME280;68622;53.128;17.966;2023-04-10T08:38:46;102322.68;;;11.44;55.37
76137;BME280;68622;53.128;17.966;2023-04-10T08:41:17;102319.65;;;11.56;54.17
76137;BME280;68622;53.128;17.966;2023-04-10T08:43:45;102315.98;;;11.66;54.63
76137;BME280;68622;53.128;17.966;2023-04-10T08:46:12;102312.67;;;11.66;53.06
76137;BME280;68622;53.128;17.966;2023-04-10T08:49:03;102315.27;;;11.69;52.57
76137;BME280;68622;53.128;17.966;2023-04-10T08:51:57;102313.17;;;11.74;52.31
76137;BME280;68622;53.128;17.966;2023-04-10T08:54:26;102315.98;;;11.82;52.52
76137;BME280;68622;53.128;17.966;2023-04-10T08:56:54;102314.02;;;11.90;53.72
76137;BME280;68622;53.128;17.966;2023-04-10T08:59:21;102307.77;;;11.96;53.19
76137;BME280;68622;53.128;17.966;2023-04-10T09:01:48;102307.98;;;12.00;52.92
76137;BME280;68622;53.128;17.966;2023-04-10T09:04:15;102308.91;;;12.04;52.28
76137;BME280;68622;53.128;17.966;2023-04-10T09:06:44;102304.98;;;12.08;53.37
76137;BME280;68622;53.128;17.966;2023-04-10T09:09:11;102304.01;;;12.12;52.97
76137;BME280;68622;53.128;17.966;2023-04-10T09:14:27;102307.11;;;12.25;51.60
76137;BME280;68622;53.128;17.966;2023-04-10T09:17:16;102305.20;;;12.22;49.04
76137;BME280;68622;53.128;17.966;2023-04-10T09:19:48;102301.13;;;12.33;51.45
76137;BME280;68622;53.128;17.966;2023-04-10T09:22:15;102298.49;;;12.41;51.00
76137;BME280;68622;53.128;17.966;2023-04-10T09:24:44;102294.84;;;12.51;51.34
76137;BME280;68622;53.128;17.966;2023-04-10T09:27:33;102292.69;;;12.57;49.80
76137;BME280;68622;53.128;17.966;2023-04-10T09:30:01;102287.48;;;12.64;51.07
76137;BME280;68622;53.128;17.966;2023-04-10T09:32:39;102283.40;;;12.70;51.44
76137;BME280;68622;53.128;17.966;2023-04-10T09:35:07;102278.31;;;12.74;50.96
76137;BME280;68622;53.128;17.966;2023-04-10T09:37:35;102272.77;;;12.83;50.01
76137;BME280;68622;53.128;17.966;2023-04-10T09:40:03;102266.23;;;12.95;49.76
76137;BME280;68622;53.128;17.966;2023-04-10T09:42:35;102258.02;;;13.04;50.64
76137;BME280;68622;53.128;17.966;2023-04-10T09:45:03;102253.19;;;13.08;49.05
76137;BME280;68622;53.128;17.966;2023-04-10T09:47:30;102247.45;;;13.16;49.69
76137;BME280;68622;53.128;17.966;2023-04-10T09:49:58;102251.34;;;13.22;49.99
76137;BME280;68622;53.128;17.966;2023-04-10T09:52:28;102249.43;;;13.19;47.58
76137;BME280;68622;53.128;17.966;2023-04-10T09:57:28;102243.39;;;13.39;48.42
76137;BME280;68622;53.128;17.966;2023-04-10T09:59:57;102241.27;;;13.46;48.97
76137;BME280;68622;53.128;17.966;2023-04-10T10:02:26;102236.16;;;13.56;49.16
76137;BME280;68622;53.128;17.966;2023-04-10T10:04:54;102231.77;;;13.65;48.45
76137;BME280;68622;53.128;17.966;2023-04-10T10:07:22;102228.08;;;13.71;48.16
76137;BME280;68622;53.128;17.966;2023-04-10T10:09:51;102227.77;;;13.80;49.59
76137;BME280;68622;53.128;17.966;2023-04-10T10:15:15;102215.29;;;13.80;48.29
76137;BME280;68622;53.128;17.966;2023-04-10T10:18:20;102216.44;;;13.83;48.92
76137;BME280;68622;53.128;17.966;2023-04-10T10:20:49;102214.25;;;13.87;49.73
76137;BME280;68622;53.128;17.966;2023-04-10T10:23:16;102214.31;;;13.88;49.21
76137;BME280;68622;53.128;17.966;2023-04-10T10:25:44;102208.35;;;13.89;49.81
76137;BME280;68622;53.128;17.966;2023-04-10T10:28:14;102212.49;;;13.91;49.37
76137;BME280;68622;53.128;17.966;2023-04-10T10:30:41;102203.34;;;13.97;49.54
76137;BME280;68622;53.128;17.966;2023-04-10T10:33:11;102199.02;;;14.03;50.13
76137;BME280;68622;53.128;17.966;2023-04-10T10:35:38;102196.90;;;14.08;49.31
76137;BME280;68622;53.128;17.966;2023-04-10T10:38:05;102194.75;;;14.13;50.12
76137;BME280;68622;53.128;17.966;2023-04-10T10:40:56;102197.60;;;14.19;49.81
76137;BME280;68622;53.128;17.966;2023-04-10T10:43:35;102196.63;;;14.26;49.85
76137;BME280;68622;53.128;17.966;2023-04-10T10:46:06;102195.08;;;14.35;49.80
76137;BME280;68622;53.128;17.966;2023-04-10T10:48:34;102193.36;;;14.39;49.45
76137;BME280;68622;53.128;17.966;2023-04-10T10:51:01;102192.55;;;14.47;49.92
76137;BME280;68622;53.128;17.966;2023-04-10T10:53:44;102191.10;;;14.50;49.26
76137;BME280;68622;53.128;17.966;2023-04-10T10:58:54;102179.98;;;14.62;49.34
76137;BME280;68622;53.128;17.966;2023-04-10T11:01:23;102173.52;;;14.66;49.13
76137;BME280;68622;53.128;17.966;2023-04-10T11:03:49;102174.06;;;14.70;48.92
76137;BME280;68622;53.128;17.966;2023-04-10T11:06:17;102171.05;;;14.77;49.45
76137;BME280;68622;53.128;17.966;2023-04-10T11:08:49;102167.36;;;14.79;49.02
76137;BME280;68622;53.128;17.966;2023-04-10T11:11:28;102163.61;;;14.84;49.58
76137;BME280;68622;53.128;17.966;2023-04-10T11:16:41;102156.92;;;14.93;49.51
76137;BME280;68622;53.128;17.966;2023-04-10T11:19:10;102149.27;;;14.97;49.14
76137;BME280;68622;53.128;17.966;2023-04-10T11:22:06;102145.40;;;15.01;49.34
76137;BME280;68622;53.128;17.966;2023-04-10T11:24:58;102146.45;;;15.05;48.95
76137;BME280;68622;53.128;17.966;2023-04-10T11:27:52;102145.44;;;15.11;49.13
76137;BME280;68622;53.128;17.966;2023-04-10T11:30:29;102141.63;;;15.13;48.42
76137;BME280;68622;53.128;17.966;2023-04-10T11:32:58;102135.36;;;15.12;47.65
76137;BME280;68622;53.128;17.966;2023-04-10T11:35:26;102137.44;;;15.21;48.24
76137;BME280;68622;53.128;17.966;2023-04-10T11:38:10;102136.15;;;15.28;48.76
76137;BME280;68622;53.128;17.966;2023-04-10T11:40:54;102131.98;;;15.22;47.24
76137;BME280;68622;53.128;17.966;2023-04-10T11:43:21;102132.91;;;15.33;48.06
76137;BME280;68622;53.128;17.966;2023-04-10T11:45:48;102133.16;;;15.40;48.17
76137;BME280;68622;53.128;17.966;2023-04-10T11:48:15;102130.61;;;15.43;47.77
76137;BME280;68622;53.128;17.966;2023-04-10T11:50:42;102123.02;;;15.46;47.66
76137;BME280;68622;53.128;17.966;2023-04-10T11:53:19;102120.52;;;15.47;47.82
76137;BME280;68622;53.128;17.966;2023-04-10T11:55:47;102114.52;;;15.51;48.12
76137;BME280;68622;53.128;17.966;2023-04-10T11:58:28;102113.55;;;15.55;48.11
76137;BME280;68622;53.128;17.966;2023-04-10T12:01:01;102110.39;;;15.61;48.34
76137;BME280;68622;53.128;17.966;2023-04-10T12:03:39;102109.80;;;15.64;47.83
76137;BME280;68622;53.128;17.966;2023-04-10T12:06:11;102104.45;;;15.65;47.57
76137;BME280;68622;53.128;17.966;2023-04-10T12:08:42;102100.97;;;15.67;47.50
76137;BME280;68622;53.128;17.966;2023-04-10T12:11:18;102090.67;;;15.63;46.10
76137;BME280;68622;53.128;17.966;2023-04-10T12:13:46;102089.11;;;15.70;47.03
76137;BME280;68622;53.128;17.966;2023-04-10T12:16:13;102088.01;;;15.79;47.49
76137;BME280;68622;53.128;17.966;2023-04-10T12:18:40;102083.20;;;15.85;47.43
76137;BME280;68622;53.128;17.966;2023-04-10T12:21:08;102081.95;;;15.88;47.07
76137;BME280;68622;53.128;17.966;2023-04-10T12:23:36;102079.13;;;15.90;46.46
76137;BME280;68622;53.128;17.966;2023-04-10T12:26:10;102073.00;;;15.91;46.88
76137;BME280;68622;53.128;17.966;2023-04-10T12:28:38;102066.75;;;15.95;47.18
76137;BME280;68622;53.128;17.966;2023-04-10T12:31:06;102062.22;;;16.01;46.80
76137;BME280;68622;53.128;17.966;2023-04-10T12:33:33;102064.54;;;16.01;45.75
76137;BME280;68622;53.128;17.966;2023-04-10T12:35:59;102058.44;;;16.04;45.92
76137;BME280;68622;53.128;17.966;2023-04-10T12:38:40;102054.80;;;16.06;46.06
76137;BME280;68622;53.128;17.966;2023-04-10T12:41:09;102053.92;;;16.09;46.02
76137;BME280;68622;53.128;17.966;2023-04-10T12:43:40;102050.62;;;16.13;46.47
76137;BME280;68622;53.128;17.966;2023-04-10T12:46:09;102048.09;;;16.18;46.38
76137;BME280;68622;53.128;17.966;2023-04-10T12:48:36;102043.65;;;16.22;46.90
76137;BME280;68622;53.128;17.966;2023-04-10T12:51:02;102040.73;;;16.27;46.29
76137;BME280;68622;53.128;17.966;2023-04-10T12:53:29;102038.23;;;16.30;45.51
76137;BME280;68622;53.128;17.966;2023-04-10T12:56:02;102032.55;;;16.35;45.77
76137;BME280;68622;53.128;17.966;2023-04-10T12:58:29;102031.29;;;16.42;45.35
76137;BME280;68622;53.128;17.966;2023-04-10T13:01:05;102027.81;;;16.51;46.08
76137;BME280;68622;53.128;17.966;2023-04-10T13:03:32;102025.96;;;16.60;45.63
76137;BME280;68622;53.128;17.966;2023-04-10T13:05:59;102022.03;;;16.69;45.10
76137;BME280;68622;53.128;17.966;2023-04-10T13:08:26;102020.77;;;16.80;45.50
76137;BME280;68622;53.128;17.966;2023-04-10T13:10:52;102012.29;;;16.87;44.90
76137;BME280;68622;53.128;17.966;2023-04-10T13:13:20;102010.21;;;16.90;44.78
76137;BME280;68622;53.128;17.966;2023-04-10T13:15:47;102005.16;;;16.88;44.99
76137;BME280;68622;53.128;17.966;2023-04-10T13:18:14;102000.30;;;16.86;44.88
76137;BME280;68622;53.128;17.966;2023-04-10T13:20:41;101995.37;;;16.82;45.42
76137;BME280;68622;53.128;17.966;2023-04-10T13:23:07;101993.52;;;16.82;44.89
76137;BME280;68622;53.128;17.966;2023-04-10T13:25:38;101989.42;;;16.86;44.86
76137;BME280;68622;53.128;17.966;2023-04-10T13:28:06;101991.16;;;16.93;45.07
76137;BME280;68622;53.128;17.966;2023-04-10T13:30:39;101984.15;;;16.97;44.98
76137;BME280;68622;53.128;17.966;2023-04-10T13:33:07;101982.98;;;16.93;44.37
76137;BME280;68622;53.128;17.966;2023-04-10T13:35:34;101981.56;;;16.89;45.09